Wilson Algeciras — 9HA2471 — position and weather

sailwx.info

Track history (hours):
 
Tides and Currents Weather Stations Pressure Air Temp Water Temp Dewpoint Dewpoint Depression Visibility Wind Speed Wind Dir Waves Ship Positions

Wilson Algeciras

Last reported at 2018-Feb-21 16:15 UTC. Time now 2018-Feb-21 19:20 UTC.
Position N 37°43' E 024°20'.

Length 88 m; draft 5 m.

Type: Ship. MMSI: 248689000.

Date/timePositionNaut miles runAvg speedWind from/ knotsBaromVisibWave heightAir tempDewpointWater temp
2018-Feb-21 16:15N 37°43' E 024°20'396 8.2
2018-Feb-19 15:54N 37°49' E 015°59'4 9.6
2018-Feb-19 15:30N 37°50' E 015°54'5 9.5
2018-Feb-19 15:00N 37°51' E 015°49'5 9.7
2018-Feb-19 14:30N 37°53' E 015°43'5 9.6
2018-Feb-19 14:00N 37°56' E 015°38'5 9.5
2018-Feb-19 13:30N 37°59' E 015°35'11 9.9
2018-Feb-19 12:25N 38°10' E 015°35'510.5
2018-Feb-19 11:57N 38°15' E 015°37'4 8.1
2018-Feb-19 11:30N 38°18' E 015°39'5 9.8
2018-Feb-19 11:00N 38°21' E 015°34'5 9.6
2018-Feb-19 10:26N 38°24' E 015°28'4 9.8
2018-Feb-19 10:00N 38°26' E 015°24'5 9.7
2018-Feb-19 09:29N 38°29' E 015°18'5 9.6
2018-Feb-19 09:00N 38°31' E 015°13'5 9.8
2018-Feb-19 08:29N 38°34' E 015°08'6 9.9
2018-Feb-19 07:55N 38°37' E 015°02'4 9.9
2018-Feb-19 07:30N 38°39' E 014°57'  
2018-Feb-16 19:00N 43°24' E 004°55'2 0.5
2018-Feb-16 14:37N 43°26' E 004°53'0 0.0
2018-Feb-16 14:19N 43°26' E 004°53'0 0.0
2018-Feb-16 13:55N 43°26' E 004°53'0 0.0
2018-Feb-16 13:25N 43°26' E 004°53'0 0.0
2018-Feb-16 12:55N 43°26' E 004°53'0 0.0
2018-Feb-16 12:28N 43°26' E 004°53'0 0.0
2018-Feb-16 11:55N 43°26' E 004°53'0 0.0
2018-Feb-16 11:28N 43°26' E 004°53'0 0.0
2018-Feb-16 10:58N 43°26' E 004°53'0 0.0
2018-Feb-16 10:28N 43°26' E 004°53'0 0.0
2018-Feb-16 09:58N 43°26' E 004°53'0 0.0
2018-Feb-16 09:28N 43°26' E 004°53'0 0.0
2018-Feb-16 08:58N 43°26' E 004°53'0 0.0
2018-Feb-16 08:28N 43°26' E 004°53'0 0.0
2018-Feb-16 07:58N 43°26' E 004°53'0 0.0
2018-Feb-16 07:28N 43°26' E 004°53'0 0.0
2018-Feb-16 06:55N 43°26' E 004°53'0 0.0
2018-Feb-16 06:28N 43°26' E 004°53'0 0.0
2018-Feb-16 05:58N 43°26' E 004°53'0 0.0
2018-Feb-16 05:28N 43°26' E 004°53'0 0.0
2018-Feb-16 04:55N 43°26' E 004°53'0 0.0
2018-Feb-16 04:28N 43°26' E 004°53'0 0.0
2018-Feb-16 03:58N 43°26' E 004°53'0 0.0
2018-Feb-16 03:25N 43°26' E 004°53'0 0.0
2018-Feb-16 02:58N 43°26' E 004°53'0 0.0
2018-Feb-16 02:28N 43°26' E 004°53'0 0.0
2018-Feb-16 01:58N 43°26' E 004°53'0 0.0
2018-Feb-16 01:25N 43°26' E 004°53'0 0.0
2018-Feb-16 00:58N 43°26' E 004°53'0 0.0
2018-Feb-16 00:28N 43°26' E 004°53'0 0.0
2018-Feb-15 23:58N 43°26' E 004°53'0 0.0
2018-Feb-15 23:28N 43°26' E 004°53'0 0.0
2018-Feb-15 22:58N 43°26' E 004°53'0 0.0
2018-Feb-15 22:28N 43°26' E 004°53'0 0.0
2018-Feb-15 21:58N 43°26' E 004°53'0 0.0
2018-Feb-15 21:25N 43°26' E 004°53'0 0.0
2018-Feb-15 20:58N 43°26' E 004°53'0 0.0
2018-Feb-15 20:28N 43°26' E 004°53'0 0.0
2018-Feb-15 19:58N 43°26' E 004°53'0 0.0
2018-Feb-15 19:31N 43°26' E 004°53'1 3.0
2018-Feb-15 19:00N 43°24' E 004°55'1 1.1
2018-Feb-15 18:26N 43°25' E 004°55'0 0.0
2018-Feb-15 17:59N 43°25' E 004°55'0 0.1
2018-Feb-15 17:26N 43°25' E 004°55'0 0.0
2018-Feb-15 16:59N 43°25' E 004°55'0 0.0
2018-Feb-15 16:26N 43°25' E 004°55'0 0.0
2018-Feb-15 15:56N 43°25' E 004°55'0 0.0
2018-Feb-15 15:17N 43°25' E 004°55'0 0.1
2018-Feb-15 14:59N 43°25' E 004°55'0 0.0
2018-Feb-15 14:26N 43°25' E 004°55'0 0.0
2018-Feb-15 13:59N 43°25' E 004°55'0 0.0
2018-Feb-15 13:26N 43°25' E 004°55'0 0.0
2018-Feb-15 12:59N 43°25' E 004°55'0 0.0
2018-Feb-15 12:26N 43°25' E 004°55'0 0.0
2018-Feb-15 11:53N 43°25' E 004°55'0 0.0
2018-Feb-15 11:23N 43°25' E 004°55'0 0.0
2018-Feb-15 10:56N 43°25' E 004°55'0 0.1
2018-Feb-15 10:29N 43°25' E 004°55'0 0.2
2018-Feb-15 10:00N 43°25' E 004°55'4 8.2
2018-Feb-15 09:30N 43°21' E 004°58'510.0
2018-Feb-15 09:00N 43°16' E 005°01'6 9.4
2018-Feb-15 08:23N 43°11' E 005°05'85 9.5
2018-Feb-14 23:25N 43°14' E 007°01'410.8
2018-Feb-14 23:00N 43°17' E 007°06'610.5
2018-Feb-14 22:27N 43°20' E 007°12'6610.2
2018-Feb-14 15:57N 44°01' E 008°25'510.2
2018-Feb-14 15:30N 44°03' E 008°30'510.3
2018-Feb-14 15:01N 44°07' E 008°36'510.6
2018-Feb-14 14:30N 44°10' E 008°41'510.7
2018-Feb-14 14:00N 44°14' E 008°47'510.4
2018-Feb-14 13:30N 44°17' E 008°52'5 9.8
2018-Feb-14 13:00N 44°20' E 008°57'4 7.7
2018-Feb-14 12:30N 44°24' E 008°55'1 2.4
2018-Feb-14 11:59N 44°24' E 008°53'0 0.0
2018-Feb-14 11:29N 44°24' E 008°53'0 0.0
2018-Feb-14 10:59N 44°24' E 008°53'0 0.0
2018-Feb-14 10:29N 44°24' E 008°53'0 0.0
2018-Feb-14 09:59N 44°24' E 008°53'0 0.0
2018-Feb-14 09:29N 44°24' E 008°53'0 0.0
2018-Feb-14 08:59N 44°24' E 008°53'0 0.0
2018-Feb-14 08:29N 44°24' E 008°53'0 0.0
2018-Feb-14 07:59N 44°24' E 008°53'0 0.0
2018-Feb-14 07:29N 44°24' E 008°53'0 0.0
2018-Feb-14 06:59N 44°24' E 008°53'0 0.0
2018-Feb-14 06:26N 44°24' E 008°53'0 0.0
2018-Feb-14 05:56N 44°24' E 008°53'0 0.0
2018-Feb-14 05:29N 44°24' E 008°53'0 0.0
2018-Feb-14 05:01N 44°24' E 008°53'1 2.4
2018-Feb-14 04:31N 44°24' E 008°55'3 5.8
2018-Feb-14 04:01N 44°22' E 008°58'2 4.1
2018-Feb-14 03:30N 44°20' E 008°59'3 5.5
2018-Feb-14 03:00N 44°18' E 008°56'0 0.2
2018-Feb-14 02:30N 44°18' E 008°56'0 0.3
2018-Feb-14 02:00N 44°18' E 008°56'0 0.1
2018-Feb-14 01:31N 44°18' E 008°56'0 0.2
2018-Feb-14 01:00N 44°18' E 008°56'0 0.3
2018-Feb-14 00:30N 44°18' E 008°56'1 1.1
2018-Feb-14 00:00N 44°18' E 008°56'3 5.5
2018-Feb-13 23:31N 44°17' E 008°52'3 5.4
2018-Feb-13 23:00N 44°15' E 008°50'3 5.5
2018-Feb-13 22:30N 44°13' E 008°47'3 5.3
2018-Feb-13 22:01N 44°11' E 008°45'3 5.6
2018-Feb-13 21:30N 44°09' E 008°42'3 5.9
2018-Feb-13 21:01N 44°07' E 008°39'2 4.5
2018-Feb-13 20:31N 44°05' E 008°37'3 4.6
2018-Feb-13 19:57N 44°04' E 008°34'57 4.7
2018-Feb-13 07:53N 43°25' E 007°35'4 8.7
2018-Feb-13 07:29N 43°23' E 007°32'5 9.1
2018-Feb-13 06:59N 43°20' E 007°27'5 9.1
2018-Feb-13 06:26N 43°16' E 007°22'4 8.7
2018-Feb-13 06:00N 43°14' E 007°18'4 8.6
2018-Feb-13 05:30N 43°11' E 007°14'4 8.5
2018-Feb-13 05:00N 43°08' E 007°10'4 8.7
2018-Feb-13 04:30N 43°05' E 007°05'250 7.8
2018-Feb-11 20:20N 40°18' E 002°58'13 8.9
2018-Feb-11 18:52N 40°09' E 002°45'4 9.3
2018-Feb-11 18:29N 40°06' E 002°42'5 9.7
2018-Feb-11 17:56N 40°03' E 002°37'  
Track history (hours):
 
Tides and Currents Weather Stations Pressure Air Temp Water Temp Dewpoint Dewpoint Depression Visibility Wind Speed Wind Dir Waves Ship Positions

Wilson Algeciras

Last reported at 2018-Feb-21 16:15 UTC. Time now 2018-Feb-21 19:20 UTC.
Position N 37°43' E 024°20'.

Length 88 m; draft 5 m.

Type: Ship. MMSI: 248689000.

Date/timePositionNaut miles runAvg speedWind from/ knotsBaromVisibWave heightAir tempDewpointWater temp
2018-Feb-21 16:15N 37°43' E 024°20'396 8.2
2018-Feb-19 15:54N 37°49' E 015°59'4 9.6
2018-Feb-19 15:30N 37°50' E 015°54'5 9.5
2018-Feb-19 15:00N 37°51' E 015°49'5 9.7
2018-Feb-19 14:30N 37°53' E 015°43'5 9.6
2018-Feb-19 14:00N 37°56' E 015°38'5 9.5
2018-Feb-19 13:30N 37°59' E 015°35'11 9.9
2018-Feb-19 12:25N 38°10' E 015°35'510.5
2018-Feb-19 11:57N 38°15' E 015°37'4 8.1
2018-Feb-19 11:30N 38°18' E 015°39'5 9.8
2018-Feb-19 11:00N 38°21' E 015°34'5 9.6
2018-Feb-19 10:26N 38°24' E 015°28'4 9.8
2018-Feb-19 10:00N 38°26' E 015°24'5 9.7
2018-Feb-19 09:29N 38°29' E 015°18'5 9.6
2018-Feb-19 09:00N 38°31' E 015°13'5 9.8
2018-Feb-19 08:29N 38°34' E 015°08'6 9.9
2018-Feb-19 07:55N 38°37' E 015°02'4 9.9
2018-Feb-19 07:30N 38°39' E 014°57'  
2018-Feb-16 19:00N 43°24' E 004°55'2 0.5
2018-Feb-16 14:37N 43°26' E 004°53'0 0.0
2018-Feb-16 14:19N 43°26' E 004°53'0 0.0
2018-Feb-16 13:55N 43°26' E 004°53'0 0.0
2018-Feb-16 13:25N 43°26' E 004°53'0 0.0
2018-Feb-16 12:55N 43°26' E 004°53'0 0.0
2018-Feb-16 12:28N 43°26' E 004°53'0 0.0
2018-Feb-16 11:55N 43°26' E 004°53'0 0.0
2018-Feb-16 11:28N 43°26' E 004°53'0 0.0
2018-Feb-16 10:58N 43°26' E 004°53'0 0.0
2018-Feb-16 10:28N 43°26' E 004°53'0 0.0
2018-Feb-16 09:58N 43°26' E 004°53'0 0.0
2018-Feb-16 09:28N 43°26' E 004°53'0 0.0
2018-Feb-16 08:58N 43°26' E 004°53'0 0.0
2018-Feb-16 08:28N 43°26' E 004°53'0 0.0
2018-Feb-16 07:58N 43°26' E 004°53'0 0.0
2018-Feb-16 07:28N 43°26' E 004°53'0 0.0
2018-Feb-16 06:55N 43°26' E 004°53'0 0.0
2018-Feb-16 06:28N 43°26' E 004°53'0 0.0
2018-Feb-16 05:58N 43°26' E 004°53'0 0.0
2018-Feb-16 05:28N 43°26' E 004°53'0 0.0
2018-Feb-16 04:55N 43°26' E 004°53'0 0.0
2018-Feb-16 04:28N 43°26' E 004°53'0 0.0
2018-Feb-16 03:58N 43°26' E 004°53'0 0.0
2018-Feb-16 03:25N 43°26' E 004°53'0 0.0
2018-Feb-16 02:58N 43°26' E 004°53'0 0.0
2018-Feb-16 02:28N 43°26' E 004°53'0 0.0
2018-Feb-16 01:58N 43°26' E 004°53'0 0.0
2018-Feb-16 01:25N 43°26' E 004°53'0 0.0
2018-Feb-16 00:58N 43°26' E 004°53'0 0.0
2018-Feb-16 00:28N 43°26' E 004°53'0 0.0
2018-Feb-15 23:58N 43°26' E 004°53'0 0.0
2018-Feb-15 23:28N 43°26' E 004°53'0 0.0
2018-Feb-15 22:58N 43°26' E 004°53'0 0.0
2018-Feb-15 22:28N 43°26' E 004°53'0 0.0
2018-Feb-15 21:58N 43°26' E 004°53'0 0.0
2018-Feb-15 21:25N 43°26' E 004°53'0 0.0
2018-Feb-15 20:58N 43°26' E 004°53'0 0.0
2018-Feb-15 20:28N 43°26' E 004°53'0 0.0
2018-Feb-15 19:58N 43°26' E 004°53'0 0.0
2018-Feb-15 19:31N 43°26' E 004°53'1 3.0
2018-Feb-15 19:00N 43°24' E 004°55'1 1.1
2018-Feb-15 18:26N 43°25' E 004°55'0 0.0
2018-Feb-15 17:59N 43°25' E 004°55'0 0.1
2018-Feb-15 17:26N 43°25' E 004°55'0 0.0
2018-Feb-15 16:59N 43°25' E 004°55'0 0.0
2018-Feb-15 16:26N 43°25' E 004°55'0 0.0
2018-Feb-15 15:56N 43°25' E 004°55'0 0.0
2018-Feb-15 15:17N 43°25' E 004°55'0 0.1
2018-Feb-15 14:59N 43°25' E 004°55'0 0.0
2018-Feb-15 14:26N 43°25' E 004°55'0 0.0
2018-Feb-15 13:59N 43°25' E 004°55'0 0.0
2018-Feb-15 13:26N 43°25' E 004°55'0 0.0
2018-Feb-15 12:59N 43°25' E 004°55'0 0.0
2018-Feb-15 12:26N 43°25' E 004°55'0 0.0
2018-Feb-15 11:53N 43°25' E 004°55'0 0.0
2018-Feb-15 11:23N 43°25' E 004°55'0 0.0
2018-Feb-15 10:56N 43°25' E 004°55'0 0.1
2018-Feb-15 10:29N 43°25' E 004°55'0 0.2
2018-Feb-15 10:00N 43°25' E 004°55'4 8.2
2018-Feb-15 09:30N 43°21' E 004°58'510.0
2018-Feb-15 09:00N 43°16' E 005°01'6 9.4
2018-Feb-15 08:23N 43°11' E 005°05'85 9.5
2018-Feb-14 23:25N 43°14' E 007°01'410.8
2018-Feb-14 23:00N 43°17' E 007°06'610.5
2018-Feb-14 22:27N 43°20' E 007°12'6610.2
2018-Feb-14 15:57N 44°01' E 008°25'510.2
2018-Feb-14 15:30N 44°03' E 008°30'510.3
2018-Feb-14 15:01N 44°07' E 008°36'510.6
2018-Feb-14 14:30N 44°10' E 008°41'510.7
2018-Feb-14 14:00N 44°14' E 008°47'510.4
2018-Feb-14 13:30N 44°17' E 008°52'5 9.8
2018-Feb-14 13:00N 44°20' E 008°57'4 7.7
2018-Feb-14 12:30N 44°24' E 008°55'1 2.4
2018-Feb-14 11:59N 44°24' E 008°53'0 0.0
2018-Feb-14 11:29N 44°24' E 008°53'0 0.0
2018-Feb-14 10:59N 44°24' E 008°53'0 0.0
2018-Feb-14 10:29N 44°24' E 008°53'0 0.0
2018-Feb-14 09:59N 44°24' E 008°53'0 0.0
2018-Feb-14 09:29N 44°24' E 008°53'0 0.0
2018-Feb-14 08:59N 44°24' E 008°53'0 0.0
2018-Feb-14 08:29N 44°24' E 008°53'0 0.0
2018-Feb-14 07:59N 44°24' E 008°53'0 0.0
2018-Feb-14 07:29N 44°24' E 008°53'0 0.0
2018-Feb-14 06:59N 44°24' E 008°53'0 0.0
2018-Feb-14 06:26N 44°24' E 008°53'0 0.0
2018-Feb-14 05:56N 44°24' E 008°53'0 0.0
2018-Feb-14 05:29N 44°24' E 008°53'0 0.0
2018-Feb-14 05:01N 44°24' E 008°53'1 2.4
2018-Feb-14 04:31N 44°24' E 008°55'3 5.8
2018-Feb-14 04:01N 44°22' E 008°58'2 4.1
2018-Feb-14 03:30N 44°20' E 008°59'3 5.5
2018-Feb-14 03:00N 44°18' E 008°56'0 0.2
2018-Feb-14 02:30N 44°18' E 008°56'0 0.3
2018-Feb-14 02:00N 44°18' E 008°56'0 0.1
2018-Feb-14 01:31N 44°18' E 008°56'0 0.2
2018-Feb-14 01:00N 44°18' E 008°56'0 0.3
2018-Feb-14 00:30N 44°18' E 008°56'1 1.1
2018-Feb-14 00:00N 44°18' E 008°56'3 5.5
2018-Feb-13 23:31N 44°17' E 008°52'3 5.4
2018-Feb-13 23:00N 44°15' E 008°50'3 5.5
2018-Feb-13 22:30N 44°13' E 008°47'3 5.3
2018-Feb-13 22:01N 44°11' E 008°45'3 5.6
2018-Feb-13 21:30N 44°09' E 008°42'3 5.9
2018-Feb-13 21:01N 44°07' E 008°39'2 4.5
2018-Feb-13 20:31N 44°05' E 008°37'3 4.6
2018-Feb-13 19:57N 44°04' E 008°34'57 4.7
2018-Feb-13 07:53N 43°25' E 007°35'4 8.7
2018-Feb-13 07:29N 43°23' E 007°32'5 9.1
2018-Feb-13 06:59N 43°20' E 007°27'5 9.1
2018-Feb-13 06:26N 43°16' E 007°22'4 8.7
2018-Feb-13 06:00N 43°14' E 007°18'4 8.6
2018-Feb-13 05:30N 43°11' E 007°14'4 8.5
2018-Feb-13 05:00N 43°08' E 007°10'4 8.7
2018-Feb-13 04:30N 43°05' E 007°05'250 7.8
2018-Feb-11 20:20N 40°18' E 002°58'13 8.9
2018-Feb-11 18:52N 40°09' E 002°45'4 9.3
2018-Feb-11 18:29N 40°06' E 002°42'5 9.7
2018-Feb-11 17:56N 40°03' E 002°37'  

Dump ship's entire track history